createdAt,value
2019-01-18T00:00:48.865Z,2.28
2019-01-18T00:01:58.572Z,2.3
2019-01-18T00:03:07.995Z,2.25
2019-01-18T00:04:17.939Z,2.28
2019-01-18T00:05:27.884Z,2.33
2019-01-18T00:06:37.839Z,2.28
2019-01-18T00:07:47.764Z,2.3
2019-01-18T00:08:57.455Z,2.26
2019-01-18T00:10:06.891Z,2.32
2019-01-18T00:11:16.576Z,2.3
2019-01-18T00:12:26.516Z,2.28
2019-01-18T00:13:35.942Z,2.3
2019-01-18T00:14:45.128Z,2.26
2019-01-18T00:15:55.040Z,2.25
2019-01-18T00:17:04.482Z,2.21
2019-01-18T00:18:14.183Z,2.26
2019-01-18T00:19:23.875Z,2.14
2019-01-18T00:20:33.566Z,2.16
2019-01-18T00:21:43.538Z,2.14
2019-01-18T00:22:52.979Z,2.1
2019-01-18T00:24:02.924Z,2.1
2019-01-18T00:25:12.866Z,2.05
2019-01-18T00:26:22.804Z,2.08
2019-01-18T00:27:32.483Z,2.05
2019-01-18T00:28:42.156Z,2.16
2019-01-18T00:29:52.091Z,2.18
2019-01-18T00:31:01.525Z,2.1
2019-01-18T00:32:11.468Z,2.16
2019-01-18T00:33:21.383Z,2.18
2019-01-18T00:34:31.320Z,2.08
2019-01-18T00:35:40.753Z,1.88
2019-01-18T00:36:50.703Z,1.81
2019-01-18T00:38:00.641Z,1.81
2019-01-18T00:39:10.560Z,1.64
2019-01-18T00:40:20.249Z,1.67
2019-01-18T00:41:29.682Z,1.53
2019-01-18T00:42:39.920Z,1.53
2019-01-18T00:43:49.350Z,1.58
2019-01-18T00:44:59.278Z,1.53
2019-01-18T00:46:08.962Z,1.52
2019-01-18T00:47:18.381Z,1.52
2019-01-18T00:48:28.317Z,1.46
2019-01-18T00:49:37.990Z,1.45
2019-01-18T00:50:47.684Z,1.39
2019-01-18T00:51:57.617Z,1.46
2019-01-18T00:53:07.551Z,1.56
2019-01-18T00:54:16.990Z,1.4
2019-01-18T00:55:26.663Z,1.42
2019-01-18T00:56:36.349Z,1.43
2019-01-18T00:57:46.032Z,1.48
2019-01-18T00:58:55.982Z,1.4
2019-01-18T01:00:05.917Z,1.48
2019-01-18T01:01:15.851Z,1.43
2019-01-18T01:02:25.530Z,1.45
2019-01-18T01:03:35.464Z,1.46
2019-01-18T01:04:45.405Z,1.49
2019-01-18T01:05:54.818Z,1.48
2019-01-18T01:07:04.252Z,1.46
2019-01-18T01:08:13.934Z,1.46
2019-01-18T01:09:23.621Z,1.43
2019-01-18T01:10:33.562Z,1.49
2019-01-18T01:11:43.253Z,1.49
2019-01-18T01:12:53.201Z,1.46
2019-01-18T01:14:03.127Z,1.46
2019-01-18T01:15:13.044Z,1.48
2019-01-18T01:16:22.720Z,1.56
2019-01-18T01:17:32.641Z,1.46
2019-01-18T01:18:42.567Z,1.52
2019-01-18T01:19:52.500Z,1.52
2019-01-18T01:21:02.211Z,1.53
2019-01-18T01:22:11.893Z,1.48
2019-01-18T01:23:21.578Z,1.43
2019-01-18T01:24:31.511Z,1.4
2019-01-18T01:25:40.950Z,1.32
2019-01-18T01:26:50.628Z,1.42
2019-01-18T01:28:00.553Z,1.38
2019-01-18T01:29:10.251Z,1.39
2019-01-18T01:30:20.189Z,1.28
2019-01-18T01:31:29.883Z,1.31
2019-01-18T01:32:39.806Z,1.27
2019-01-18T01:33:49.512Z,1.27
2019-01-18T01:34:59.461Z,1.21
2019-01-18T01:36:09.145Z,1.24
2019-01-18T01:37:18.567Z,1.22
2019-01-18T01:38:28.277Z,1.22
2019-01-18T01:39:37.958Z,1.24
2019-01-18T01:40:47.636Z,1.16
2019-01-18T01:41:57.317Z,1.12
2019-01-18T01:43:07.271Z,1.09
2019-01-18T01:44:16.947Z,1.13
2019-01-18T01:45:26.881Z,1.06
2019-01-18T01:46:36.552Z,1.02
2019-01-18T01:47:46.228Z,1.04
2019-01-18T01:48:56.152Z,0.95
2019-01-18T01:50:06.084Z,0.89
2019-01-18T01:51:16.020Z,0.84
2019-01-18T01:52:25.490Z,0.74
2019-01-18T01:53:35.180Z,0.7
2019-01-18T01:54:45.106Z,0.61
2019-01-18T01:55:55.021Z,0.61
2019-01-18T01:57:04.936Z,0.47
2019-01-18T01:58:14.374Z,0.42
2019-01-18T01:59:24.083Z,0.4
2019-01-18T02:00:34.018Z,0.37
2019-01-18T02:01:43.955Z,0.37
2019-01-18T02:02:53.915Z,0.37
2019-01-18T02:04:03.690Z,0.48
2019-01-18T02:05:13.637Z,0.48
2019-01-18T02:06:23.578Z,0.4
2019-01-18T02:07:33.521Z,0.33
2019-01-18T02:08:43.193Z,0.34
2019-01-18T02:09:52.873Z,0.4
2019-01-18T02:11:02.557Z,0.31
2019-01-18T02:12:12.237Z,0.37
2019-01-18T02:13:21.927Z,0.34
2019-01-18T02:14:31.856Z,0.36
2019-01-18T02:15:41.545Z,0.31
2019-01-18T02:16:51.484Z,0.36
2019-01-18T02:18:01.420Z,0.33
2019-01-18T02:19:10.866Z,0.39
2019-01-18T02:20:20.824Z,0.33
2019-01-18T02:21:30.766Z,0.31
2019-01-18T02:22:40.474Z,0.27
2019-01-18T02:23:50.162Z,0.33
2019-01-18T02:24:59.847Z,0.23
2019-01-18T02:26:09.779Z,0.2
2019-01-18T02:27:19.700Z,0.2
2019-01-18T02:28:29.387Z,0.19
2019-01-18T02:29:39.475Z,0.27
2019-01-18T02:30:49.162Z,0.15
2019-01-18T02:31:58.614Z,0.12
2019-01-18T02:33:08.551Z,0.15
2019-01-18T02:34:18.241Z,0.13
2019-01-18T02:35:28.201Z,0.13
2019-01-18T02:36:38.146Z,0.19
2019-01-18T02:37:48.083Z,0.18
2019-01-18T02:38:57.284Z,0.19
2019-01-18T02:40:07.245Z,0.19
2019-01-18T02:41:17.195Z,0.18
2019-01-18T02:42:27.128Z,0.18
2019-01-18T02:43:37.105Z,0.16
2019-01-18T02:44:46.823Z,0.23
2019-01-18T02:45:56.774Z,0.27
2019-01-18T02:47:06.733Z,0.24
2019-01-18T02:48:16.687Z,0.12
2019-01-18T02:49:26.613Z,0.09
2019-01-18T02:50:36.311Z,0.05
2019-01-18T02:51:46.006Z,0.09
2019-01-18T02:52:56.000Z,0.09
2019-01-18T02:54:05.682Z,0.08
2019-01-18T02:55:15.634Z,0.06
2019-01-18T02:56:25.319Z,0.09
2019-01-18T02:57:35.323Z,0.02
2019-01-18T02:58:45.029Z,0.08
2019-01-18T02:59:54.731Z,0.05
2019-01-18T03:01:11.935Z,0.02
2019-01-18T03:02:21.645Z,-0.1
2019-01-18T03:03:31.332Z,-0.15
2019-01-18T03:04:41.007Z,-0.3
2019-01-18T03:05:50.955Z,-0.3
2019-01-18T03:07:00.383Z,-0.35
2019-01-18T03:08:10.057Z,-0.38
2019-01-18T03:09:20.002Z,-0.36
2019-01-18T03:10:29.432Z,-0.38
2019-01-18T03:11:39.118Z,-0.45
2019-01-18T03:12:49.067Z,-0.39
2019-01-18T03:13:58.772Z,-0.36
2019-01-18T03:15:08.703Z,-0.44
2019-01-18T03:16:18.659Z,-0.39
2019-01-18T03:17:28.608Z,-0.42
2019-01-18T03:18:38.540Z,-0.41
2019-01-18T03:19:47.973Z,-0.44
2019-01-18T03:20:57.651Z,-0.45
2019-01-18T03:22:07.625Z,-0.38
2019-01-18T03:23:17.572Z,-0.41
2019-01-18T03:24:27.541Z,-0.45
2019-01-18T03:25:37.475Z,-0.38
2019-01-18T03:26:47.430Z,-0.31
2019-01-18T03:27:57.115Z,-0.35
2019-01-18T03:29:07.060Z,-0.3
2019-01-18T03:30:24.114Z,-0.26
2019-01-18T03:31:34.105Z,-0.3
2019-01-18T03:32:43.816Z,-0.31
2019-01-18T03:33:53.672Z,-0.35
2019-01-18T03:35:03.616Z,-0.39
2019-01-18T03:36:13.543Z,-0.38
2019-01-18T03:37:23.540Z,-0.27
2019-01-18T03:38:33.493Z,-0.27
2019-01-18T03:39:43.185Z,-0.28
2019-01-18T03:40:53.136Z,-0.23
2019-01-18T03:42:03.075Z,-0.27
2019-01-18T03:43:13.034Z,-0.26
2019-01-18T03:44:22.957Z,-0.2
2019-01-18T03:45:32.929Z,-0.21
2019-01-18T03:46:42.858Z,-0.3
2019-01-18T03:47:52.537Z,-0.23
2019-01-18T03:49:02.466Z,-0.27
2019-01-18T03:50:12.409Z,-0.26
2019-01-18T03:51:22.101Z,-0.13
2019-01-18T03:52:31.792Z,-0.17
2019-01-18T03:53:41.476Z,-0.23
2019-01-18T03:54:51.410Z,-0.28
2019-01-18T03:56:01.342Z,-0.27
2019-01-18T03:57:11.038Z,-0.2
2019-01-18T03:58:20.974Z,-0.15
2019-01-18T03:59:30.683Z,-0.13
2019-01-18T04:00:40.368Z,-0.21
2019-01-18T04:01:50.309Z,-0.12
2019-01-18T04:03:00.259Z,-0.13
2019-01-18T04:04:10.382Z,-0.18
2019-01-18T04:05:19.833Z,-0.15
2019-01-18T04:06:29.525Z,-0.17
2019-01-18T04:07:39.466Z,-0.12
2019-01-18T04:08:49.405Z,-0.09
2019-01-18T04:09:59.340Z,-0.12
2019-01-18T04:11:09.116Z,-0.13
2019-01-18T04:12:19.065Z,0
2019-01-18T04:13:28.770Z,-0.1
2019-01-18T04:14:38.473Z,-0.07
2019-01-18T04:15:48.425Z,-0.09
2019-01-18T04:16:58.349Z,-0.03
2019-01-18T04:18:08.047Z,-0.06
2019-01-18T04:19:18.008Z,-0.06
2019-01-18T04:20:27.969Z,-0.06
2019-01-18T04:21:37.913Z,-0.03
2019-01-18T04:22:47.855Z,-0.03
2019-01-18T04:23:57.806Z,-0.02
2019-01-18T04:25:07.495Z,-0.02
2019-01-18T04:26:17.416Z,0.06
2019-01-18T04:27:27.355Z,0.06
2019-01-18T04:28:36.798Z,0.02
2019-01-18T04:29:46.743Z,-0.02
2019-01-18T04:30:56.450Z,0.11
2019-01-18T04:32:05.880Z,0.05
2019-01-18T04:33:15.586Z,0.06
2019-01-18T04:34:25.289Z,0.13
2019-01-18T04:35:35.222Z,0.06
2019-01-18T04:36:44.650Z,0.19
2019-01-18T04:37:54.579Z,0.15
2019-01-18T04:39:04.518Z,0.19
2019-01-18T04:40:14.193Z,0.2
2019-01-18T04:41:23.876Z,0.18
2019-01-18T04:42:33.807Z,0.23
2019-01-18T04:43:43.732Z,0.19
2019-01-18T04:44:53.421Z,0.16
2019-01-18T04:46:03.377Z,0.16
2019-01-18T04:47:13.100Z,0.27
2019-01-18T04:48:23.065Z,0.13
2019-01-18T04:49:33.046Z,0.23
2019-01-18T04:50:42.979Z,0.23
2019-01-18T04:51:52.681Z,0.16
2019-01-18T04:53:02.620Z,0.2
2019-01-18T04:54:12.569Z,0.16
2019-01-18T04:55:22.257Z,0.18
2019-01-18T04:56:31.950Z,0.18
2019-01-18T04:57:41.917Z,0.23
2019-01-18T04:58:51.850Z,0.2
2019-01-18T05:00:01.594Z,0.24
2019-01-18T05:01:11.318Z,0.15
2019-01-18T05:02:21.249Z,0.16
2019-01-18T05:03:31.204Z,0.16
2019-01-18T05:04:41.136Z,0.18
2019-01-18T05:05:50.824Z,0.19
2019-01-18T05:07:00.755Z,0.19
2019-01-18T05:08:10.176Z,0.19
2019-01-18T05:09:20.116Z,0.18
2019-01-18T05:10:30.063Z,0.19
2019-01-18T05:11:39.746Z,0.19
2019-01-18T05:12:49.213Z,0.18
2019-01-18T05:13:59.182Z,0.18
2019-01-18T05:15:09.153Z,0.18
2019-01-18T05:16:19.100Z,0.15
2019-01-18T05:17:29.023Z,0.13
2019-01-18T05:18:38.975Z,0.13
2019-01-18T05:19:48.661Z,0.06
2019-01-18T05:20:58.088Z,0.09
2019-01-18T05:22:07.542Z,0.16
2019-01-18T05:23:17.281Z,0.16
2019-01-18T05:24:27.228Z,0.15
2019-01-18T05:25:36.667Z,0.18
2019-01-18T05:26:46.354Z,0.13
2019-01-18T05:27:56.314Z,0.15
2019-01-18T05:29:06.263Z,0.19
2019-01-18T05:30:16.202Z,0.2
2019-01-18T05:31:26.264Z,0.19
2019-01-18T05:32:35.958Z,0.23
2019-01-18T05:33:45.654Z,0.23
2019-01-18T05:34:55.354Z,0.16
2019-01-18T05:36:05.188Z,0.16
2019-01-18T05:37:15.132Z,0.16
2019-01-18T05:38:25.105Z,0.2
2019-01-18T05:39:34.537Z,0.12
2019-01-18T05:40:43.995Z,0.16
2019-01-18T05:41:53.940Z,0.16
2019-01-18T05:43:03.625Z,0.12
2019-01-18T05:44:13.603Z,0.16
2019-01-18T05:45:23.318Z,0.12
2019-01-18T05:46:33.259Z,0.19
2019-01-18T05:47:43.206Z,0.18
2019-01-18T05:48:52.926Z,0.18
2019-01-18T05:50:02.651Z,0.09
2019-01-18T05:51:12.339Z,0.2
2019-01-18T05:52:22.047Z,0.16
2019-01-18T05:53:31.022Z,0.16
2019-01-18T05:54:40.714Z,0.16
2019-01-18T05:55:50.146Z,0.13
2019-01-18T05:57:00.101Z,0.13
2019-01-18T05:58:10.051Z,0.11
2019-01-18T05:59:19.985Z,0.01
2019-01-18T06:00:29.811Z,0.11
2019-01-18T06:01:39.634Z,0.09
2019-01-18T06:02:49.318Z,0.01
2019-01-18T06:03:59.238Z,0.02
2019-01-18T06:05:09.195Z,0.05
2019-01-18T06:06:19.167Z,0.06
2019-01-18T06:07:29.108Z,0
2019-01-18T06:08:39.094Z,0.01
2019-01-18T06:09:49.032Z,-0.02
2019-01-18T06:10:58.975Z,0.01
2019-01-18T06:12:08.662Z,-0.03
2019-01-18T06:13:18.597Z,0
2019-01-18T06:14:28.531Z,0.06
2019-01-18T06:15:38.230Z,0.09
2019-01-18T06:16:48.326Z,-0.03
2019-01-18T06:17:58.257Z,0.05
2019-01-18T06:19:08.206Z,-0.03
2019-01-18T06:20:18.153Z,-0.03
2019-01-18T06:21:28.116Z,0.01
2019-01-18T06:22:37.812Z,0.06
2019-01-18T06:23:47.504Z,-0.03
2019-01-18T06:24:57.456Z,-0.05
2019-01-18T06:26:07.409Z,-0.07
2019-01-18T06:27:17.389Z,-0.05
2019-01-18T06:28:28.424Z,-0.03
2019-01-18T06:29:38.116Z,-0.13
2019-01-18T06:30:47.806Z,-0.03
2019-01-18T06:31:57.484Z,-0.13
2019-01-18T06:33:06.918Z,-0.06
2019-01-18T06:34:16.629Z,-0.12
2019-01-18T06:35:26.576Z,-0.12
2019-01-18T06:36:36.530Z,-0.1
2019-01-18T06:37:46.674Z,-0.12
2019-01-18T06:38:56.840Z,-0.07
2019-01-18T06:40:06.783Z,-0.13
2019-01-18T06:41:16.530Z,-0.1
2019-01-18T06:42:26.472Z,-0.12
2019-01-18T06:43:36.159Z,-0.06
2019-01-18T06:44:46.093Z,-0.12
2019-01-18T06:45:55.779Z,-0.18
2019-01-18T06:47:05.463Z,-0.13
2019-01-18T06:48:15.411Z,-0.1
2019-01-18T06:49:25.453Z,-0.15
2019-01-18T06:50:35.376Z,-0.12
2019-01-18T06:51:45.314Z,-0.12
2019-01-18T06:52:55.270Z,-0.17
2019-01-18T06:54:05.243Z,-0.18
2019-01-18T06:55:15.184Z,-0.2
2019-01-18T06:56:24.869Z,-0.2
2019-01-18T06:57:35.041Z,-0.2
2019-01-18T06:58:44.997Z,-0.2
2019-01-18T06:59:54.944Z,-0.13
2019-01-18T07:01:10.846Z,-0.15
2019-01-18T07:02:20.781Z,-0.21
2019-01-18T07:03:30.739Z,-0.28
2019-01-18T07:04:46.217Z,-0.13
2019-01-18T07:05:56.166Z,-0.27
2019-01-18T07:07:05.860Z,-0.15
2019-01-18T07:08:15.799Z,-0.2
2019-01-18T07:09:25.484Z,-0.31
2019-01-18T07:10:35.420Z,-0.24
2019-01-18T07:11:45.363Z,-0.27
2019-01-18T07:12:55.309Z,-0.35
2019-01-18T07:14:05.246Z,-0.31
2019-01-18T07:15:14.929Z,-0.3
2019-01-18T07:16:24.607Z,-0.38
2019-01-18T07:17:34.565Z,-0.35
2019-01-18T07:18:44.505Z,-0.35
2019-01-18T07:19:54.472Z,-0.35
2019-01-18T07:21:03.933Z,-0.26
2019-01-18T07:22:13.384Z,-0.27
2019-01-18T07:23:23.077Z,-0.42
2019-01-18T07:24:33.279Z,-0.36
2019-01-18T07:25:43.215Z,-0.46
2019-01-18T07:26:53.195Z,-0.51
2019-01-18T07:28:03.167Z,-0.41
2019-01-18T07:29:13.158Z,-0.44
2019-01-18T07:30:23.114Z,-0.41
2019-01-18T07:31:33.062Z,-0.46
2019-01-18T07:32:43.015Z,-0.41
2019-01-18T07:33:52.749Z,-0.42
2019-01-18T07:35:02.711Z,-0.39
2019-01-18T07:36:13.767Z,-0.44
2019-01-18T07:37:23.456Z,-0.45
2019-01-18T07:38:33.437Z,-0.39
2019-01-18T07:39:43.139Z,-0.41
2019-01-18T07:40:52.871Z,-0.39
2019-01-18T07:42:02.355Z,-0.42
2019-01-18T07:43:12.049Z,-0.41
2019-01-18T07:44:22.015Z,-0.41
2019-01-18T07:45:31.715Z,-0.44
2019-01-18T07:46:40.937Z,-0.49
2019-01-18T07:47:50.983Z,-0.49
2019-01-18T07:49:00.952Z,-0.48
2019-01-18T07:50:10.910Z,-0.41
2019-01-18T07:51:27.548Z,-0.36
2019-01-18T07:52:37.512Z,-0.41
2019-01-18T07:53:47.462Z,-0.41
2019-01-18T07:54:57.148Z,-0.41
2019-01-18T07:56:06.903Z,-0.39
2019-01-18T07:57:16.585Z,-0.45
2019-01-18T07:58:26.533Z,-0.39
2019-01-18T07:59:36.499Z,-0.39
2019-01-18T08:00:46.441Z,-0.39
2019-01-18T08:01:56.131Z,-0.36
2019-01-18T08:03:06.069Z,-0.26
2019-01-18T08:04:16.037Z,-0.2
2019-01-18T08:05:25.970Z,-0.15
2019-01-18T08:06:35.956Z,-0.2
2019-01-18T08:07:45.645Z,-0.03
2019-01-18T08:08:56.009Z,-0.06
2019-01-18T08:10:05.987Z,0.02
2019-01-18T08:11:15.696Z,0.08
2019-01-18T08:12:25.639Z,0.09
2019-01-18T08:13:35.600Z,0.06
2019-01-18T08:14:45.553Z,0
2019-01-18T08:15:55.584Z,0.01
2019-01-18T08:17:05.292Z,0.16
2019-01-18T08:18:14.985Z,0.19
2019-01-18T08:19:24.687Z,0.23
2019-01-18T08:20:34.659Z,0.33
2019-01-18T08:21:44.607Z,0.49
2019-01-18T08:22:54.048Z,0.48
2019-01-18T08:24:03.758Z,0.48
2019-01-18T08:25:13.460Z,0.51
2019-01-18T08:26:23.607Z,0.64
2019-01-18T08:27:33.419Z,0.44
2019-01-18T08:28:43.095Z,0.42
2019-01-18T08:29:53.607Z,0.37
2019-01-18T08:31:03.290Z,0.44
2019-01-18T08:32:12.978Z,0.45
2019-01-18T08:33:22.408Z,0.49
2019-01-18T08:34:32.346Z,0.52
2019-01-18T08:35:42.033Z,0.58
2019-01-18T08:36:51.474Z,0.58
2019-01-18T08:38:01.415Z,0.49
2019-01-18T08:39:11.104Z,0.55
2019-01-18T08:40:20.819Z,0.63
2019-01-18T08:41:30.773Z,0.7
2019-01-18T08:42:40.724Z,0.68
2019-01-18T08:43:50.454Z,0.66
2019-01-18T08:45:00.415Z,0.74
2019-01-18T08:46:10.402Z,0.66
2019-01-18T08:47:20.345Z,0.61
2019-01-18T08:48:30.295Z,0.61
2019-01-18T08:49:40.261Z,0.59
2019-01-18T08:50:49.708Z,0.71
2019-01-18T08:51:59.661Z,0.81
2019-01-18T08:53:09.359Z,0.76
2019-01-18T08:54:18.795Z,0.92
2019-01-18T08:55:28.025Z,0.77
2019-01-18T08:56:37.757Z,0.95
2019-01-18T08:57:47.710Z,0.85
2019-01-18T08:58:57.669Z,0.91
2019-01-18T09:00:07.389Z,1
2019-01-18T09:01:17.341Z,1.09
2019-01-18T09:02:27.317Z,1.2
2019-01-18T09:03:37.007Z,1.13
2019-01-18T09:04:46.725Z,1.12
2019-01-18T09:05:56.439Z,1.21
2019-01-18T09:07:06.415Z,1.28
2019-01-18T09:08:16.381Z,1.24
2019-01-18T09:09:26.351Z,1.24
2019-01-18T09:10:36.325Z,1.27
2019-01-18T09:11:46.296Z,1.25
2019-01-18T09:12:56.279Z,1.24
2019-01-18T09:14:06.272Z,1.16
2019-01-18T09:15:16.241Z,1.21
2019-01-18T09:16:25.943Z,1.36
2019-01-18T09:17:35.892Z,1.4
2019-01-18T09:18:45.866Z,1.57
2019-01-18T09:19:55.833Z,1.52
2019-01-18T09:21:05.799Z,1.68
2019-01-18T09:22:15.507Z,1.84
2019-01-18T09:23:24.983Z,1.84
2019-01-18T09:24:34.935Z,2.12
2019-01-18T09:25:44.671Z,2.28
2019-01-18T09:26:54.376Z,2.18
2019-01-18T09:28:04.610Z,2.03
2019-01-18T09:29:15.167Z,1.95
2019-01-18T09:30:24.921Z,1.78
2019-01-18T09:31:34.909Z,1.71
2019-01-18T09:32:50.222Z,1.64
2019-01-18T09:33:59.933Z,1.79
2019-01-18T09:35:09.906Z,2
2019-01-18T09:36:19.901Z,1.86
2019-01-18T09:37:29.859Z,1.84
2019-01-18T09:38:39.589Z,1.68
2019-01-18T09:39:50.016Z,1.85
2019-01-18T09:40:59.984Z,1.81
2019-01-18T09:42:09.951Z,2.01
2019-01-18T09:43:19.653Z,2.01
2019-01-18T09:44:29.641Z,1.98
2019-01-18T09:45:39.354Z,2.05
2019-01-18T09:46:49.073Z,2.22
2019-01-18T09:47:58.772Z,2.37
2019-01-18T09:49:08.509Z,2.61
2019-01-18T09:50:18.209Z,2.73
2019-01-18T09:51:28.197Z,2.75
2019-01-18T09:52:37.991Z,2.72
2019-01-18T09:53:47.969Z,2.68
2019-01-18T09:54:57.672Z,2.83
2019-01-18T09:56:07.759Z,2.95
2019-01-18T09:57:17.457Z,2.79
2019-01-18T09:58:27.406Z,2.91
2019-01-18T09:59:37.347Z,3.03
2019-01-18T10:00:47.049Z,2.95
2019-01-18T10:01:57.009Z,2.7
2019-01-18T10:03:06.967Z,2.51
2019-01-18T10:04:16.504Z,2.47
2019-01-18T10:05:26.462Z,2.64
2019-01-18T10:06:36.391Z,2.77
2019-01-18T10:07:46.186Z,2.93
2019-01-18T10:08:55.921Z,2.97
2019-01-18T10:10:05.898Z,2.97
2019-01-18T10:11:15.358Z,2.82
2019-01-18T10:12:25.060Z,2.76
2019-01-18T10:13:34.807Z,2.72
2019-01-18T10:14:44.859Z,2.62
2019-01-18T10:15:54.318Z,2.77
2019-01-18T10:17:04.029Z,2.76
2019-01-18T10:18:13.744Z,2.57
2019-01-18T10:19:23.447Z,2.59
2019-01-18T10:20:33.175Z,2.72
2019-01-18T10:21:43.369Z,2.46
2019-01-18T10:22:54.064Z,2.4
2019-01-18T10:24:04.031Z,2.4
2019-01-18T10:25:14.031Z,2.28
2019-01-18T10:26:23.978Z,2.33
2019-01-18T10:27:33.446Z,2.33
2019-01-18T10:28:43.398Z,2.22
2019-01-18T10:29:53.349Z,2.3
2019-01-18T10:31:03.308Z,2.39
2019-01-18T10:32:12.756Z,2.52
2019-01-18T10:33:22.458Z,2.61
2019-01-18T10:34:32.406Z,2.7
2019-01-18T10:35:42.354Z,2.98
2019-01-18T10:36:52.314Z,2.94
2019-01-18T10:38:02.554Z,2.87
2019-01-18T10:39:12.262Z,2.94
2019-01-18T10:40:22.017Z,3
2019-01-18T10:41:31.984Z,2.91
2019-01-18T10:42:41.937Z,2.8
2019-01-18T10:43:51.668Z,2.59
2019-01-18T10:45:01.396Z,2.61
2019-01-18T10:46:11.374Z,2.62
2019-01-18T10:47:21.078Z,2.73
2019-01-18T10:48:30.533Z,2.77
2019-01-18T10:49:40.485Z,3.09
2019-01-18T10:50:49.929Z,3.21
2019-01-18T10:51:59.625Z,3.37
2019-01-18T10:53:09.324Z,3.29
2019-01-18T10:54:19.041Z,3.09
2019-01-18T10:55:28.985Z,2.97
2019-01-18T10:56:38.953Z,2.8
2019-01-18T10:57:48.384Z,2.72
2019-01-18T10:58:57.589Z,2.8
2019-01-18T11:00:07.548Z,2.9
2019-01-18T11:01:17.504Z,2.93
2019-01-18T11:02:27.214Z,3.16
2019-01-18T11:03:36.891Z,3.3
2019-01-18T11:04:46.584Z,3.49
2019-01-18T11:05:56.561Z,3.55
2019-01-18T11:07:06.514Z,3.66
2019-01-18T11:08:22.312Z,3.82
2019-01-18T11:09:32.846Z,4.38
2019-01-18T11:10:42.791Z,4.27
2019-01-18T11:11:52.750Z,4.49
2019-01-18T11:13:02.220Z,4.52
2019-01-18T11:14:12.180Z,4.43
2019-01-18T11:15:22.123Z,4.39
2019-01-18T11:16:31.812Z,4.18
2019-01-18T11:17:41.510Z,4.42
2019-01-18T11:18:51.233Z,4.53
2019-01-18T11:20:00.688Z,4.24
2019-01-18T11:21:10.656Z,4.27
2019-01-18T11:22:20.624Z,4.32
2019-01-18T11:23:30.584Z,4.24
2019-01-18T11:24:40.285Z,3.95
2019-01-18T11:25:49.979Z,3.95
2019-01-18T11:26:59.926Z,3.96
2019-01-18T11:28:09.641Z,3.96
2019-01-18T11:29:19.580Z,4.3
2019-01-18T11:30:28.590Z,4.36
2019-01-18T11:31:38.552Z,4.56
2019-01-18T11:32:48.253Z,4.49
2019-01-18T11:33:57.957Z,4.56
2019-01-18T11:35:07.670Z,4.75
2019-01-18T11:36:17.634Z,4.92
2019-01-18T11:37:27.329Z,4.84
2019-01-18T11:38:37.296Z,5.02
2019-01-18T11:39:47.276Z,5.04
2019-01-18T11:40:57.238Z,4.75
2019-01-18T11:42:09.919Z,4.46
2019-01-18T11:43:20.414Z,4.5
2019-01-18T11:44:30.368Z,4.6
2019-01-18T11:45:40.367Z,4.52
2019-01-18T11:46:50.324Z,4.38
2019-01-18T11:48:00.068Z,4.4
2019-01-18T11:49:09.799Z,4.21
2019-01-18T11:50:19.774Z,4.36
2019-01-18T11:51:29.244Z,4.18
2019-01-18T11:52:39.238Z,3.95
2019-01-18T11:53:48.972Z,3.96
2019-01-18T11:54:58.961Z,3.89
2019-01-18T11:56:08.689Z,3.82
2019-01-18T11:57:18.394Z,3.77
2019-01-18T11:58:28.381Z,3.94
2019-01-18T11:59:38.344Z,3.84
2019-01-18T12:00:48.313Z,3.95
2019-01-18T12:01:58.264Z,3.96
2019-01-18T12:03:08.223Z,3.85
2019-01-18T12:04:17.688Z,3.86
2019-01-18T12:05:27.622Z,3.88
2019-01-18T12:06:37.582Z,3.78
2019-01-18T12:07:47.544Z,3.7
2019-01-18T12:08:57.518Z,3.74
2019-01-18T12:10:07.472Z,3.89
2019-01-18T12:11:17.452Z,3.84
2019-01-18T12:12:27.892Z,4.03
2019-01-18T12:13:37.613Z,4.21
2019-01-18T12:14:47.316Z,4.53
2019-01-18T12:15:57.048Z,4.68
2019-01-18T12:17:06.296Z,4.83
2019-01-18T12:18:16.277Z,4.82
2019-01-18T12:19:26.248Z,4.71
2019-01-18T12:20:35.713Z,4.86
2019-01-18T12:21:45.464Z,4.76
2019-01-18T12:22:55.183Z,4.95
2019-01-18T12:24:05.132Z,4.97
2019-01-18T12:25:14.844Z,5.18
2019-01-18T12:26:24.546Z,5.16
2019-01-18T12:27:34.538Z,5.16
2019-01-18T12:28:44.528Z,5.16
2019-01-18T12:29:54.588Z,5.12
2019-01-18T12:31:04.050Z,5.01
2019-01-18T12:32:13.750Z,5.15
2019-01-18T12:33:23.719Z,5.08
2019-01-18T12:34:33.520Z,4.89
2019-01-18T12:35:43.810Z,4.94
2019-01-18T12:37:00.914Z,4.74
2019-01-18T12:38:10.884Z,4.52
2019-01-18T12:39:20.859Z,4.52
2019-01-18T12:40:30.841Z,4.48
2019-01-18T12:41:40.787Z,4.4
2019-01-18T12:42:50.496Z,4.4
2019-01-18T12:44:00.198Z,4.75
2019-01-18T12:45:09.890Z,4.83
2019-01-18T12:46:19.606Z,4.87
2019-01-18T12:47:29.118Z,5
2019-01-18T12:48:38.875Z,4.94
2019-01-18T12:49:48.826Z,4.98
2019-01-18T12:50:58.807Z,4.82
2019-01-18T12:52:08.766Z,5
2019-01-18T12:53:18.494Z,5.05
2019-01-18T12:54:28.197Z,5.16
2019-01-18T12:55:38.166Z,5.23
2019-01-18T12:56:48.131Z,4.97
2019-01-18T12:57:58.091Z,5.02
2019-01-18T12:59:07.789Z,5.07
2019-01-18T13:00:17.770Z,4.9
2019-01-18T13:01:27.477Z,4.89
2019-01-18T13:02:40.285Z,4.84
2019-01-18T13:03:50.269Z,4.82
2019-01-18T13:05:00.236Z,4.63
2019-01-18T13:06:10.187Z,4.5
2019-01-18T13:07:19.883Z,4.53
2019-01-18T13:08:29.348Z,4.53
2019-01-18T13:09:39.299Z,4.4
2019-01-18T13:10:49.246Z,4.36
2019-01-18T13:11:58.951Z,4.52
2019-01-18T13:13:08.665Z,4.67
2019-01-18T13:14:18.617Z,4.4
2019-01-18T13:15:28.315Z,4.31
2019-01-18T13:16:38.331Z,4.22
2019-01-18T13:17:48.323Z,4.2
2019-01-18T13:18:58.029Z,4.14
2019-01-18T13:20:07.514Z,4.36
2019-01-18T13:21:17.514Z,4.43
2019-01-18T13:22:31.018Z,4.49
2019-01-18T13:23:41.216Z,4.5
2019-01-18T13:24:51.218Z,4.7
2019-01-18T13:26:00.935Z,4.89
2019-01-18T13:27:10.892Z,4.87
2019-01-18T13:28:20.339Z,4.71
2019-01-18T13:29:30.304Z,4.58
2019-01-18T13:30:39.974Z,4.56
2019-01-18T13:31:49.934Z,4.52
2019-01-18T13:32:59.897Z,4.5
2019-01-18T13:34:09.846Z,4.58
2019-01-18T13:35:19.805Z,4.4
2019-01-18T13:36:29.505Z,4.4
2019-01-18T13:37:39.511Z,4.46
2019-01-18T13:38:49.249Z,4.03
2019-01-18T13:39:59.242Z,3.92
2019-01-18T13:41:13.900Z,3.91
2019-01-18T13:42:23.619Z,4.02
2019-01-18T13:43:33.331Z,4.2
2019-01-18T13:44:48.437Z,4.31
2019-01-18T13:45:57.886Z,4.2
2019-01-18T13:47:07.856Z,4.16
2019-01-18T13:48:23.348Z,4.32
2019-01-18T13:49:33.053Z,4.38
2019-01-18T13:50:42.765Z,4.56
2019-01-18T13:51:52.173Z,4.74
2019-01-18T13:53:01.600Z,4.94
2019-01-18T13:54:11.558Z,5.05
2019-01-18T13:55:21.516Z,5.31
2019-01-18T13:56:31.498Z,5.29
2019-01-18T13:57:41.186Z,5.2
2019-01-18T13:58:50.882Z,5.33
2019-01-18T14:00:00.841Z,5.28
2019-01-18T14:01:10.559Z,5.01
2019-01-18T14:02:20.273Z,5.12
2019-01-18T14:03:30.264Z,5.02
2019-01-18T14:04:40.685Z,4.95
2019-01-18T14:05:50.387Z,4.98
2019-01-18T14:07:00.111Z,4.83
2019-01-18T14:08:09.830Z,4.98
2019-01-18T14:09:19.542Z,5.01
2019-01-18T14:10:29.484Z,5.01
2019-01-18T14:11:39.197Z,5.13
2019-01-18T14:12:49.151Z,5.02
2019-01-18T14:13:58.841Z,4.9
2019-01-18T14:15:08.805Z,4.86
2019-01-18T14:16:18.501Z,4.57
2019-01-18T14:17:28.196Z,4.48
2019-01-18T14:18:37.912Z,4.32
2019-01-18T14:19:47.622Z,4.36
2019-01-18T14:20:57.583Z,4.24
2019-01-18T14:22:07.039Z,4.31
2019-01-18T14:23:16.730Z,4.22
2019-01-18T14:24:26.687Z,4.22
2019-01-18T14:25:36.635Z,4.21
2019-01-18T14:26:46.567Z,4.32
2019-01-18T14:27:56.004Z,4.32
2019-01-18T14:29:05.959Z,4.24
2019-01-18T14:30:15.167Z,4.32
2019-01-18T14:31:24.873Z,4.31
2019-01-18T14:32:34.832Z,4.52
2019-01-18T14:33:44.765Z,4.53
2019-01-18T14:34:54.721Z,4.34
2019-01-18T14:36:04.679Z,4.16
2019-01-18T14:37:14.617Z,4.16
2019-01-18T14:38:29.910Z,4.24
2019-01-18T14:39:39.599Z,4.27
2019-01-18T14:40:49.558Z,4.45
2019-01-18T14:41:59.268Z,4.27
2019-01-18T14:43:08.714Z,4.24
2019-01-18T14:44:18.666Z,4.21
2019-01-18T14:45:28.620Z,4.22
2019-01-18T14:46:38.568Z,4.2
2019-01-18T14:47:48.523Z,4.12
2019-01-18T14:48:58.478Z,3.91
2019-01-18T14:50:08.416Z,3.71
2019-01-18T14:51:17.872Z,3.66
2019-01-18T14:52:27.824Z,3.52
2019-01-18T14:53:37.773Z,3.46
2019-01-18T14:54:47.468Z,3.22
2019-01-18T14:55:56.936Z,3.13
2019-01-18T14:57:06.933Z,3.12
2019-01-18T14:58:16.881Z,3.09
2019-01-18T14:59:29.628Z,2.98
2019-01-18T15:00:39.333Z,2.87
2019-01-18T15:01:49.304Z,2.77
2019-01-18T15:03:04.946Z,2.75
2019-01-18T15:04:14.650Z,2.69
2019-01-18T15:05:24.603Z,2.57
2019-01-18T15:06:34.541Z,2.46
2019-01-18T15:07:44.243Z,2.52
2019-01-18T15:08:54.222Z,2.51
2019-01-18T15:10:07.569Z,2.46
2019-01-18T15:11:17.013Z,2.39
2019-01-18T15:12:26.719Z,2.25
2019-01-18T15:13:36.415Z,2.34
2019-01-18T15:14:46.123Z,2.33
2019-01-18T15:15:55.801Z,2.23
2019-01-18T15:17:05.491Z,2.26
2019-01-18T15:18:15.422Z,2.28
2019-01-18T15:19:25.141Z,2.14
2019-01-18T15:20:35.077Z,2.08
2019-01-18T15:21:44.768Z,2.05
2019-01-18T15:22:54.463Z,2.04
2019-01-18T15:24:04.423Z,2.04
2019-01-18T15:25:14.388Z,2.04
2019-01-18T15:26:24.093Z,2
2019-01-18T15:27:34.027Z,2.01
2019-01-18T15:28:43.970Z,1.88